Home   Weather   USA   San Marcos   Past weeks
Flag for USA

Past Weather in San Marcos, Texas, USA — Yesterday and Last 2 Weeks

Currently: 80 °F. Overcast. (Weather station: San Marcos Municipal Airport, USA). See more current weather

Past Weather in San Marcos — Graph

°F

San Marcos Temperature Yesterday

Maximum temperature yesterday: 97 °F (at 3:56 pm)
Minimum temperature yesterday: 72 °F (at 4:56 am)
Average temperature yesterday: 82 °F

High & Low Weather Summary for the Past Weeks

 TemperatureHumidityPressure
High98 °F (May 18, 4:56 pm)100% (May 5, 7:02 am)30.14 "Hg (May 5, 7:02 am)
Low60 °F (May 6, 5:56 am)28% (May 16, 2:56 pm)29.60 "Hg (May 8, 4:56 pm)
Average80 °F75%29.87 "Hg
* Reported May 5 7:02 am — May 20 7:56 am, San Marcos. Weather by CustomWeather, © 2022

Note: Actual official high and low records may vary slightly from our data, if they occured in-between our weather recording intervals... More about our weather records

San Marcos Weather History for the Previous 24 Hours

Scroll right to see more
 ConditionsComfort  
Time TempWeatherWind HumidityBarometerVisibility
7:56 am
Fri, May 20
78 °FMostly cloudy.14 mph84%29.64 "Hg9 mi
7:30 am79 °FOvercast.13 mph84%29.67 "Hg9 mi
6:56 am77 °FOvercast.13 mph88%29.63 "Hg9 mi
6:33 am77 °FMostly cloudy.15 mph89%29.65 "Hg9 mi
6:19 am77 °FMostly cloudy.13 mph89%29.65 "Hg10 mi
5:56 am77 °FMostly cloudy.10 mph88%29.62 "Hg10 mi
5:28 am77 °FOvercast.12 mph83%29.65 "Hg10 mi
5:20 am77 °FMostly cloudy.12 mph83%29.65 "Hg10 mi
4:56 am77 °FOvercast.14 mph85%29.61 "Hg10 mi
4:29 am77 °FOvercast.15 mph83%29.65 "Hg10 mi
3:56 am77 °FMostly cloudy.18 mph82%29.61 "Hg10 mi
2:56 am76 °FOvercast.15 mph88%29.62 "Hg10 mi
2:29 am75 °FOvercast.15 mph89%29.67 "Hg10 mi
1:23 am75 °FPassing clouds.18 mph89%29.67 "Hg10 mi
11:56 pm
Thu, May 19
78 °FOvercast.16 mph79%29.67 "Hg10 mi
10:56 pm79 °FOvercast.16 mph74%29.68 "Hg10 mi
10:36 pm79 °FPassing clouds.13 mph74%29.72 "Hg10 mi
9:56 pm79 °FClear.21 mph74%29.67 "Hg10 mi
8:56 pm82 °FClear.17 mph63%29.64 "Hg10 mi
7:56 pm85 °FSunny.17 mph55%29.63 "Hg10 mi
5:56 pm93 °FSunny.20 mph42%29.62 "Hg10 mi
4:56 pm96 °FSunny.18 mph34%29.63 "Hg10 mi
3:56 pm97 °FSunny.16 mph34%29.65 "Hg10 mi
2:56 pm95 °FSunny.20 mph35%29.68 "Hg10 mi
1:56 pm93 °FSunny.17 mph40%29.71 "Hg10 mi
12:56 pm91 °FSunny.17 mph44%29.75 "Hg10 mi
11:56 am87 °FSunny.20 mph51%29.78 "Hg10 mi
10:56 am84 °FPassing clouds.18 mph57%29.80 "Hg10 mi
10:43 am82 °FPassing clouds.21 mph62%29.83 "Hg10 mi
10:06 am81 °FScattered clouds.17 mph66%29.84 "Hg10 mi
Weather by CustomWeather, © 2022

See weather overview